Time;durP1;ratioP1;P1;durP2;ratioP2;P2;SDS_P1;SDS_P2;PMS_P1;PMS_P2;Temp;Humidity;BMP_temperature;BMP_pressure;BME280_temperature;BME280_humidity;BME280_pressure;Samples;Min_cycle;Max_cycle;Signal;HPM_P1;HPM_P2
2021/03/02 11:19:54;;;;;;;;;33.60;33.60;;;;;;;;1586004;27;83671;-90
2021/03/02 11:20:43;;;;;;;;;36.75;34.50;;;;;;;;1578350;27;84775;-90
2021/03/02 11:21:28;;;;;;;;;33.20;32.20;;;;;;;;1568851;27;85399;-90
2021/03/02 11:22:13;;;;;;;;;30.00;30.00;;;;;;;;1561500;27;86461;-89
2021/03/02 11:22:58;;;;;;;;;36.75;33.00;;;;;;;;1561347;27;85995;-88
2021/03/02 11:23:44;;;;;;;;;35.50;34.50;;;;;;;;1561142;27;85816;-90
2021/03/02 11:24:29;;;;;;;;;36.00;34.75;;;;;;;;1567484;27;86350;-88
2021/03/02 11:25:18;;;;;;;;;28.25;24.25;;;;;;;;1571861;27;83620;-90
2021/03/02 11:26:05;;;;;;;;;29.20;28.40;;;;;;;;1567923;27;84859;-90
2021/03/02 11:26:51;;;;;;;;;30.40;30.40;;;;;;;;1566491;27;83201;-90
2021/03/02 11:27:36;;;;;;;;;25.50;25.50;;;;;;;;1562118;27;86311;-90
2021/03/02 11:28:21;;;;;;;;;23.75;23.75;;;;;;;;1562114;27;85077;-91
2021/03/02 11:29:06;;;;;;;;;25.75;25.75;;;;;;;;1561225;27;85320;-90
2021/03/02 11:29:52;;;;;;;;;27.50;27.50;;;;;;;;1567404;27;84803;-90
2021/03/02 11:30:38;;;;;;;;;29.50;29.50;;;;;;;;1565405;27;85107;-90
2021/03/02 11:31:23;;;;;;;;;22.50;22.50;;;;;;;;1565178;27;86410;-91
2021/03/02 11:32:08;;;;;;;;;22.25;22.25;;;;;;;;1560858;27;83545;-90
2021/03/02 11:32:53;;;;;;;;;27.50;26.25;;;;;;;;1561051;27;86046;-90
2021/03/02 11:33:39;;;;;;;;;24.50;23.75;;;;;;;;1560930;27;85337;-89
2021/03/02 11:34:24;;;;;;;;;20.75;20.00;;;;;;;;1559922;27;86653;-90
2021/03/02 11:35:10;;;;;;;;;21.33;21.33;;;;;;;;1560632;27;84856;-90
2021/03/02 11:35:55;;;;;;;;;23.80;23.60;;;;;;;;1561120;27;86310;-91
2021/03/02 11:36:41;;;;;;;;;24.75;24.75;;;;;;;;1557967;28;86040;-90
2021/03/02 11:37:26;;;;;;;;;28.00;26.75;;;;;;;;1554720;28;85047;-90
2021/03/02 11:38:13;;;;;;;;;29.25;26.25;;;;;;;;1554694;28;85843;-90
2021/03/02 11:38:58;;;;;;;;;24.80;24.00;;;;;;;;1554909;28;86629;-91
2021/03/02 11:39:43;;;;;;;;;23.50;23.50;;;;;;;;1561242;27;83961;-88
2021/03/02 11:40:30;;;;;;;;;21.75;21.75;;;;;;;;1559693;27;85485;-88
2021/03/02 11:41:15;;;;;;;;;21.20;21.20;;;;;;;;1561108;28;85966;-89
2021/03/02 11:42:00;;;;;;;;;19.67;19.67;;;;;;;;1561147;27;85713;-90
2021/03/02 11:42:46;;;;;;;;;17.00;17.00;;;;;;;;1561387;27;85676;-90
2021/03/02 11:43:31;;;;;;;;;15.67;15.67;;;;;;;;1565356;27;84416;-88
2021/03/02 11:44:16;;;;;;;;;18.67;18.67;;;;;;;;1560901;27;86163;-90
2021/03/02 11:45:05;;;;;;;;;18.33;18.33;;;;;;;;1565460;27;85787;-89
2021/03/02 11:45:50;;;;;;;;;17.75;17.75;;;;;;;;1559098;28;85425;-91
2021/03/02 11:46:36;;;;;;;;;21.00;21.00;;;;;;;;1562462;27;84119;-91
2021/03/02 11:47:21;;;;;;;;;20.00;20.00;;;;;;;;1561967;27;86810;-90
2021/03/02 11:48:07;;;;;;;;;20.00;20.00;;;;;;;;1566140;27;86574;-90
2021/03/02 11:48:52;;;;;;;;;22.00;22.00;;;;;;;;1565284;27;86392;-91
2021/03/02 11:49:37;;;;;;;;;22.00;20.67;;;;;;;;1558242;28;87682;-91
2021/03/02 11:50:23;;;;;;;;;20.33;18.00;;;;;;;;1557583;27;86075;-90
2021/03/02 11:51:08;;;;;;;;;18.67;18.67;;;;;;;;1561121;27;84104;-91
2021/03/02 11:51:53;;;;;;;;;12.33;12.33;;;;;;;;1561112;27;85164;-91
2021/03/02 11:52:38;;;;;;;;;17.00;17.00;;;;;;;;1565265;27;86710;-90
2021/03/02 11:53:24;;;;;;;;;16.00;16.00;;;;;;;;1561061;27;86484;-91
2021/03/02 11:54:09;;;;;;;;;20.33;20.33;;;;;;;;1561127;27;86634;-89
2021/03/02 11:54:54;;;;;;;;;20.33;20.33;;;;;;;;1565036;27;85411;-90
2021/03/02 11:55:40;;;;;;;;;13.00;13.00;;;;;;;;1567473;27;85392;-90
2021/03/02 11:56:25;;;;;;;;;16.67;16.67;;;;;;;;1565323;27;86387;-90
2021/03/02 11:57:10;;;;;;;;;15.33;15.33;;;;;;;;1560876;27;85588;-91
2021/03/02 11:57:56;;;;;;;;;17.67;16.67;;;;;;;;1561053;27;85321;-90
2021/03/02 11:58:41;;;;;;;;;18.67;18.67;;;;;;;;1561340;27;85070;-91
2021/03/02 11:59:26;;;;;;;;;20.00;20.00;;;;;;;;1562048;27;86660;-90
2021/03/02 12:00:13;;;;;;;;;16.33;16.33;;;;;;;;1561660;27;86361;-91
2021/03/02 12:00:58;;;;;;;;;17.25;17.25;;;;;;;;1561549;27;85559;-90
2021/03/02 12:01:43;;;;;;;;;17.67;17.33;;;;;;;;1560918;27;86548;-90
2021/03/02 12:02:29;;;;;;;;;17.33;17.33;;;;;;;;1567206;27;85753;-91
2021/03/02 12:03:14;;;;;;;;;15.67;15.67;;;;;;;;1567961;27;83441;-91
2021/03/02 12:03:59;;;;;;;;;19.00;19.00;;;;;;;;1565261;27;84932;-90
2021/03/02 12:04:44;;;;;;;;;17.67;17.67;;;;;;;;1561304;27;85005;-91
2021/03/02 12:05:30;;;;;;;;;23.67;23.67;;;;;;;;1560854;27;86496;-91
2021/03/02 12:06:15;;;;;;;;;25.00;23.50;;;;;;;;1560817;27;87509;-90
2021/03/02 12:07:00;;;;;;;;;17.00;17.00;;;;;;;;1561217;27;84741;-91
2021/03/02 12:07:46;;;;;;;;;21.00;21.00;;;;;;;;1560899;27;86288;-92
2021/03/02 12:08:33;;;;;;;;;18.50;18.50;;;;;;;;1561177;27;86127;-91
2021/03/02 12:09:18;;;;;;;;;22.00;21.75;;;;;;;;1561772;27;86233;-91
2021/03/02 12:10:05;;;;;;;;;17.67;17.67;;;;;;;;1561426;27;85733;-91
2021/03/02 12:10:50;;;;;;;;;18.75;18.75;;;;;;;;1560939;27;85451;-91
2021/03/02 12:11:35;;;;;;;;;17.67;17.67;;;;;;;;1560991;27;85687;-90
2021/03/02 12:12:20;;;;;;;;;15.00;15.00;;;;;;;;1558749;28;85581;-90
2021/03/02 12:13:06;;;;;;;;;12.67;12.67;;;;;;;;1560860;27;84965;-90
2021/03/02 12:13:51;;;;;;;;;19.67;19.67;;;;;;;;1558788;28;86048;-91
2021/03/02 12:14:37;;;;;;;;;12.00;12.00;;;;;;;;1554809;28;83727;-90
2021/03/02 12:15:22;;;;;;;;;16.33;16.33;;;;;;;;1560793;27;86194;-91
2021/03/02 12:16:07;;;;;;;;;13.67;13.67;;;;;;;;1560964;27;85153;-90
2021/03/02 12:16:52;;;;;;;;;24.67;24.67;;;;;;;;1558851;28;85849;-91
2021/03/02 12:17:38;;;;;;;;;18.67;18.67;;;;;;;;1554728;28;85166;-91
2021/03/02 12:18:23;;;;;;;;;20.33;20.33;;;;;;;;1554693;28;85935;-91
2021/03/02 12:19:08;;;;;;;;;17.67;17.33;;;;;;;;1560968;27;84595;-90
2021/03/02 12:19:54;;;;;;;;;23.00;23.00;;;;;;;;1558950;28;84491;-92
2021/03/02 12:20:39;;;;;;;;;22.33;22.33;;;;;;;;1554848;28;86218;-92
2021/03/02 12:21:25;;;;;;;;;19.33;19.33;;;;;;;;1561197;27;85230;-91
2021/03/02 12:22:10;;;;;;;;;19.67;19.67;;;;;;;;1561274;27;86394;-92
2021/03/02 12:22:55;;;;;;;;;18.33;18.33;;;;;;;;1558994;28;85746;-91
2021/03/02 12:23:40;;;;;;;;;15.67;15.67;;;;;;;;1554714;28;85953;-91
2021/03/02 12:24:26;;;;;;;;;12.67;12.67;;;;;;;;1557620;28;85194;-91
2021/03/02 12:25:11;;;;;;;;;22.33;22.33;;;;;;;;1560986;27;86075;-91
2021/03/02 12:25:56;;;;;;;;;16.00;16.00;;;;;;;;1559091;27;86288;-90
2021/03/02 12:26:42;;;;;;;;;20.00;20.00;;;;;;;;1554869;28;86203;-90
2021/03/02 12:27:27;;;;;;;;;20.67;19.00;;;;;;;;1561403;27;84749;-91
2021/03/02 12:28:12;;;;;;;;;22.33;22.33;;;;;;;;1561037;27;85790;-91
2021/03/02 12:28:58;;;;;;;;;19.33;19.33;;;;;;;;1561498;27;85729;-91
2021/03/02 12:29:43;;;;;;;;;18.33;18.33;;;;;;;;1561396;27;84807;-90
2021/03/02 12:30:29;;;;;;;;;17.67;17.33;;;;;;;;1561033;27;86196;-90
2021/03/02 12:31:14;;;;;;;;;16.67;16.67;;;;;;;;1562987;27;83118;-90
2021/03/02 12:31:59;;;;;;;;;10.00;10.00;;;;;;;;1563497;27;85036;-90
2021/03/02 12:32:45;;;;;;;;;13.33;13.33;;;;;;;;1561486;28;86579;-90
2021/03/02 12:33:30;;;;;;;;;21.00;21.00;;;;;;;;1557056;28;84979;-91
2021/03/02 12:34:15;;;;;;;;;18.00;17.67;;;;;;;;1556575;28;87483;-90
2021/03/02 12:35:01;;;;;;;;;17.00;17.00;;;;;;;;1564695;28;86963;-90
2021/03/02 12:35:46;;;;;;;;;16.67;16.67;;;;;;;;1571141;27;83450;-90
2021/03/02 12:36:31;;;;;;;;;18.00;16.00;;;;;;;;1571036;27;84919;-91
2021/03/02 12:37:16;;;;;;;;;16.00;16.00;;;;;;;;1574930;27;85145;-90
2021/03/02 12:38:02;;;;;;;;;19.67;19.67;;;;;;;;1575675;27;84785;-92
2021/03/02 12:38:47;;;;;;;;;18.67;18.67;;;;;;;;1567109;28;83787;-90
2021/03/02 12:39:32;;;;;;;;;16.67;16.67;;;;;;;;1567651;28;84651;-89
2021/03/02 12:40:18;;;;;;;;;18.33;18.33;;;;;;;;1559987;28;85687;-89
2021/03/02 12:41:04;;;;;;;;;23.25;23.25;;;;;;;;1555971;28;85721;-89
2021/03/02 12:41:49;;;;;;;;;22.00;21.67;;;;;;;;1562630;28;83937;-89
2021/03/02 12:42:34;;;;;;;;;27.67;26.00;;;;;;;;1566311;27;85316;-88
2021/03/02 12:43:20;;;;;;;;;29.67;28.00;;;;;;;;1560868;28;84822;-89
2021/03/02 12:44:06;;;;;;;;;21.25;19.25;;;;;;;;1560853;28;86238;-89
2021/03/02 12:44:51;;;;;;;;;21.67;21.67;;;;;;;;1560699;28;86437;-90
2021/03/02 12:45:37;;;;;;;;;21.00;21.00;;;;;;;;1560335;27;84595;-89
2021/03/02 12:46:22;;;;;;;;;20.33;19.67;;;;;;;;1560855;28;86716;-90
2021/03/02 12:47:07;;;;;;;;;14.33;14.33;;;;;;;;1554705;28;86577;-89
2021/03/02 12:47:52;;;;;;;;;13.67;13.67;;;;;;;;1550518;28;85627;-89
2021/03/02 12:48:38;;;;;;;;;15.00;13.00;;;;;;;;1556294;28;85362;-90
2021/03/02 12:49:23;;;;;;;;;18.00;18.00;;;;;;;;1556231;28;85493;-91
2021/03/02 12:50:08;;;;;;;;;20.33;20.33;;;;;;;;1556938;28;84441;-89
2021/03/02 12:50:54;;;;;;;;;21.33;21.33;;;;;;;;1556703;28;86924;-90
2021/03/02 12:51:39;;;;;;;;;13.00;13.00;;;;;;;;1561436;28;86945;-89
2021/03/02 12:52:24;;;;;;;;;15.00;15.00;;;;;;;;1560407;28;85358;-88
2021/03/02 12:53:10;;;;;;;;;20.67;20.67;;;;;;;;1567678;28;85628;-89
2021/03/02 12:53:55;;;;;;;;;19.00;19.00;;;;;;;;1559804;28;85476;-87
2021/03/02 12:54:42;;;;;;;;;20.00;20.00;;;;;;;;1563792;28;84433;-88
2021/03/02 12:55:27;;;;;;;;;15.75;15.75;;;;;;;;1563517;28;85607;-89
2021/03/02 12:56:13;;;;;;;;;17.67;17.67;;;;;;;;1561016;28;87070;-89
2021/03/02 12:56:58;;;;;;;;;18.00;18.00;;;;;;;;1559989;28;85620;-88
2021/03/02 12:57:43;;;;;;;;;14.33;14.33;;;;;;;;1561697;28;85395;-88
2021/03/02 12:58:29;;;;;;;;;19.33;17.33;;;;;;;;1559082;28;85429;-89
2021/03/02 12:59:14;;;;;;;;;21.00;21.00;;;;;;;;1555279;28;86989;-89
2021/03/02 12:59:59;;;;;;;;;20.33;20.33;;;;;;;;1551521;28;86363;-89
2021/03/02 13:00:44;;;;;;;;;20.33;20.33;;;;;;;;1550282;28;84166;-88
2021/03/02 13:01:30;;;;;;;;;17.00;17.00;;;;;;;;1560742;28;85326;-89
2021/03/02 13:02:16;;;;;;;;;16.00;16.00;;;;;;;;1554338;28;86532;-90
2021/03/02 13:03:02;;;;;;;;;18.25;18.25;;;;;;;;1550648;28;86369;-90
2021/03/02 13:03:48;;;;;;;;;17.33;16.67;;;;;;;;1560541;27;86901;-90
2021/03/02 13:04:33;;;;;;;;;15.00;15.00;;;;;;;;1559997;28;86049;-87
2021/03/02 13:05:19;;;;;;;;;18.67;18.67;;;;;;;;1562691;27;85278;-86
2021/03/02 13:06:04;;;;;;;;;16.67;16.67;;;;;;;;1560526;28;86464;-89
2021/03/02 13:06:50;;;;;;;;;19.00;19.00;;;;;;;;1556321;28;86811;-88
2021/03/02 13:07:38;;;;;;;;;15.67;15.67;;;;;;;;1558936;28;87018;-87
2021/03/02 13:08:23;;;;;;;;;20.50;19.25;;;;;;;;1563169;27;85248;-89
2021/03/02 13:09:09;;;;;;;;;15.67;15.67;;;;;;;;1560521;28;84764;-89
2021/03/02 13:09:56;;;;;;;;;22.67;21.33;;;;;;;;1556504;28;84610;-88
2021/03/02 13:10:42;;;;;;;;;21.50;21.50;;;;;;;;1554219;28;85198;-89
2021/03/02 13:11:27;;;;;;;;;20.00;20.00;;;;;;;;1562959;27;84671;-89
2021/03/02 13:12:13;;;;;;;;;18.67;18.67;;;;;;;;1560567;28;87100;-89
2021/03/02 13:12:59;;;;;;;;;22.00;22.00;;;;;;;;1562710;27;85174;-89
2021/03/02 13:13:44;;;;;;;;;13.75;13.75;;;;;;;;1560233;28;85006;-88
2021/03/02 13:14:29;;;;;;;;;18.50;18.50;;;;;;;;1556373;28;85775;-88
2021/03/02 13:15:15;;;;;;;;;17.33;17.33;;;;;;;;1554554;28;86165;-88
2021/03/02 13:16:01;;;;;;;;;13.33;12.67;;;;;;;;1556512;28;86263;-86
2021/03/02 13:16:49;;;;;;;;;20.00;20.00;;;;;;;;1554286;28;84837;-86
2021/03/02 13:17:36;;;;;;;;;14.25;14.25;;;;;;;;1556908;28;86332;-86
2021/03/02 13:18:21;;;;;;;;;20.75;20.25;;;;;;;;1556425;28;84980;-87
2021/03/02 13:19:07;;;;;;;;;14.00;14.00;;;;;;;;1548317;28;84946;-89
2021/03/02 13:19:53;;;;;;;;;17.00;17.00;;;;;;;;1543801;28;85989;-87
2021/03/02 13:20:38;;;;;;;;;13.00;13.00;;;;;;;;1555032;28;84856;-88
2021/03/02 13:21:24;;;;;;;;;19.33;18.67;;;;;;;;1556370;28;84776;-88
2021/03/02 13:22:09;;;;;;;;;17.33;17.33;;;;;;;;1554357;28;84974;-87
2021/03/02 13:22:54;;;;;;;;;19.00;19.00;;;;;;;;1550221;28;85781;-87
2021/03/02 13:23:41;;;;;;;;;12.67;12.67;;;;;;;;1550225;28;85822;-87
2021/03/02 13:24:26;;;;;;;;;13.50;13.50;;;;;;;;1550426;28;85941;-88
2021/03/02 13:25:12;;;;;;;;;13.33;13.33;;;;;;;;1550400;28;85241;-88
2021/03/02 13:25:58;;;;;;;;;13.00;13.00;;;;;;;;1556466;28;84869;-88
2021/03/02 13:26:44;;;;;;;;;15.67;15.67;;;;;;;;1556163;28;86397;-87
2021/03/02 13:27:31;;;;;;;;;14.75;14.75;;;;;;;;1554453;28;85093;-88
2021/03/02 13:28:16;;;;;;;;;12.50;12.50;;;;;;;;1556823;28;85747;-87
2021/03/02 13:29:06;;;;;;;;;15.00;15.00;;;;;;;;1565729;27;85260;-88
2021/03/02 13:29:55;;;;;;;;;19.75;19.00;;;;;;;;1564020;27;86220;-88
2021/03/02 13:30:42;;;;;;;;;16.25;16.25;;;;;;;;1560691;28;83671;-88
2021/03/02 13:31:29;;;;;;;;;18.25;18.25;;;;;;;;1556718;28;83589;-88
2021/03/02 13:32:19;;;;;;;;;15.25;15.25;;;;;;;;1554453;28;84952;-87
2021/03/02 13:33:09;;;;;;;;;14.25;14.25;;;;;;;;1557684;28;85309;-88
2021/03/02 13:33:57;;;;;;;;;14.00;14.00;;;;;;;;1556483;28;85014;-87
2021/03/02 13:34:44;;;;;;;;;14.00;14.00;;;;;;;;1562724;28;84857;-86
2021/03/02 13:35:30;;;;;;;;;13.00;13.00;;;;;;;;1562232;28;86282;-87
2021/03/02 13:36:15;;;;;;;;;20.33;20.33;;;;;;;;1567685;27;83482;-89
2021/03/02 13:37:01;;;;;;;;;19.50;19.50;;;;;;;;1560672;28;85251;-89
2021/03/02 13:37:47;;;;;;;;;20.50;20.50;;;;;;;;1556518;28;86364;-88
2021/03/02 13:38:33;;;;;;;;;16.67;16.67;;;;;;;;1555105;28;84006;-88
2021/03/02 13:39:19;;;;;;;;;14.50;14.50;;;;;;;;1560654;28;86149;-88
2021/03/02 13:40:08;;;;;;;;;16.67;15.33;;;;;;;;1560578;28;86155;-88
2021/03/02 13:40:53;;;;;;;;;15.00;15.00;;;;;;;;1554349;28;85339;-89
2021/03/02 13:41:39;;;;;;;;;18.50;18.50;;;;;;;;1556977;28;84590;-87
2021/03/02 13:42:24;;;;;;;;;18.67;17.33;;;;;;;;1553722;28;87051;-89
2021/03/02 13:43:11;;;;;;;;;15.67;15.67;;;;;;;;1551285;28;87321;-87
2021/03/02 13:43:58;;;;;;;;;14.50;14.50;;;;;;;;1553355;28;85911;-88
2021/03/02 13:44:44;;;;;;;;;13.50;13.50;;;;;;;;1555111;28;85104;-88
2021/03/02 13:45:29;;;;;;;;;15.67;15.67;;;;;;;;1560748;28;84762;-87
2021/03/02 13:46:15;;;;;;;;;11.67;11.67;;;;;;;;1558326;28;86267;-88
2021/03/02 13:47:00;;;;;;;;;9.75;9.75;;;;;;;;1558626;28;85275;-88
2021/03/02 13:47:46;;;;;;;;;17.33;17.33;;;;;;;;1555563;27;85263;-87
2021/03/02 13:48:32;;;;;;;;;12.50;12.50;;;;;;;;1552213;28;85702;-88
2021/03/02 13:49:17;;;;;;;;;10.67;10.67;;;;;;;;1552064;28;84112;-89
2021/03/02 13:50:03;;;;;;;;;19.00;19.00;;;;;;;;1550676;28;85033;-89
2021/03/02 13:50:52;;;;;;;;;14.00;14.00;;;;;;;;1554488;28;83434;-89
2021/03/02 13:51:37;;;;;;;;;16.25;16.25;;;;;;;;1557289;28;86400;-89
2021/03/02 13:52:22;;;;;;;;;13.33;13.33;;;;;;;;1557229;28;86760;-88
2021/03/02 13:53:09;;;;;;;;;12.67;12.67;;;;;;;;1554792;28;85397;-89
2021/03/02 13:53:54;;;;;;;;;12.25;12.25;;;;;;;;1556080;28;87249;-88
2021/03/02 13:54:40;;;;;;;;;13.00;13.00;;;;;;;;1560677;28;83898;-88
2021/03/02 13:55:25;;;;;;;;;12.50;12.50;;;;;;;;1556383;28;86817;-88
2021/03/02 13:56:11;;;;;;;;;15.67;14.33;;;;;;;;1554514;28;86631;-87
2021/03/02 13:56:56;;;;;;;;;13.33;13.33;;;;;;;;1556248;28;84184;-87
2021/03/02 13:57:41;;;;;;;;;17.00;17.00;;;;;;;;1560420;28;86890;-90
2021/03/02 13:58:27;;;;;;;;;7.00;7.00;;;;;;;;1554489;28;85202;-87
2021/03/02 13:59:12;;;;;;;;;18.00;17.00;;;;;;;;1556485;28;85676;-89
2021/03/02 13:59:58;;;;;;;;;15.67;15.67;;;;;;;;1556454;28;86865;-87
2021/03/02 14:00:43;;;;;;;;;13.33;13.33;;;;;;;;1555244;28;86354;-87
2021/03/02 14:01:32;;;;;;;;;14.67;14.67;;;;;;;;1556365;28;86130;-87
2021/03/02 14:02:18;;;;;;;;;14.25;14.25;;;;;;;;1554912;28;86989;-87
2021/03/02 14:03:04;;;;;;;;;10.75;10.75;;;;;;;;1552892;28;86817;-87
2021/03/02 14:03:51;;;;;;;;;12.00;12.00;;;;;;;;1551838;28;86874;-87
2021/03/02 14:04:37;;;;;;;;;13.50;13.50;;;;;;;;1550214;28;87287;-87
2021/03/02 14:05:24;;;;;;;;;12.25;12.25;;;;;;;;1550177;28;87819;-89
2021/03/02 14:06:10;;;;;;;;;13.50;13.50;;;;;;;;1556613;28;84138;-89
2021/03/02 14:06:55;;;;;;;;;15.25;15.25;;;;;;;;1560732;28;85349;-89
2021/03/02 14:07:42;;;;;;;;;15.00;15.00;;;;;;;;1555168;28;86897;-89
2021/03/02 14:08:28;;;;;;;;;15.75;15.75;;;;;;;;1556395;28;87070;-88
2021/03/02 14:09:14;;;;;;;;;12.25;12.25;;;;;;;;1556512;28;86760;-88
2021/03/02 14:10:00;;;;;;;;;13.50;13.50;;;;;;;;1556410;28;85251;-89
2021/03/02 14:10:45;;;;;;;;;15.33;15.00;;;;;;;;1556493;28;86361;-90
2021/03/02 14:11:32;;;;;;;;;8.67;8.67;;;;;;;;1556441;27;86492;-87
2021/03/02 14:12:17;;;;;;;;;12.50;12.50;;;;;;;;1556449;28;87040;-89
2021/03/02 14:13:02;;;;;;;;;12.67;12.67;;;;;;;;1559450;28;86544;-88
2021/03/02 14:13:48;;;;;;;;;10.67;9.00;;;;;;;;1556679;28;85800;-88
2021/03/02 14:14:34;;;;;;;;;8.33;8.33;;;;;;;;1556446;28;84933;-88
2021/03/02 14:15:20;;;;;;;;;12.00;12.00;;;;;;;;1556902;28;83559;-89
2021/03/02 14:16:07;;;;;;;;;12.00;12.00;;;;;;;;1556830;28;84582;-89
2021/03/02 14:16:54;;;;;;;;;17.00;17.00;;;;;;;;1556908;28;84446;-89
2021/03/02 14:17:41;;;;;;;;;14.00;14.00;;;;;;;;1557034;28;85460;-88
2021/03/02 14:18:27;;;;;;;;;18.25;18.25;;;;;;;;1551128;28;86228;-88
2021/03/02 14:19:12;;;;;;;;;15.00;15.00;;;;;;;;1556340;28;86225;-87
2021/03/02 14:20:00;;;;;;;;;6.67;6.67;;;;;;;;1556053;28;86126;-88
2021/03/02 14:20:45;;;;;;;;;15.50;15.50;;;;;;;;1556585;28;83757;-89
2021/03/02 14:21:32;;;;;;;;;11.67;11.67;;;;;;;;1556306;28;86217;-88
2021/03/02 14:22:18;;;;;;;;;11.00;11.00;;;;;;;;1562490;27;83573;-88
2021/03/02 14:23:04;;;;;;;;;13.75;13.75;;;;;;;;1558409;28;84679;-88
2021/03/02 14:23:49;;;;;;;;;13.00;13.00;;;;;;;;1554083;28;85155;-88
2021/03/02 14:24:35;;;;;;;;;12.00;12.00;;;;;;;;1550000;28;85176;-88
2021/03/02 14:25:20;;;;;;;;;12.67;12.67;;;;;;;;1556186;28;86926;-90
2021/03/02 14:26:06;;;;;;;;;13.00;11.67;;;;;;;;1559849;28;85211;-85
2021/03/02 14:26:53;;;;;;;;;10.75;10.75;;;;;;;;1553997;28;84873;-88
2021/03/02 14:27:39;;;;;;;;;12.50;12.50;;;;;;;;1556253;28;85122;-88
2021/03/02 14:28:24;;;;;;;;;11.00;11.00;;;;;;;;1556381;28;85062;-88
2021/03/02 14:29:11;;;;;;;;;15.00;15.00;;;;;;;;1554086;28;83616;-88
2021/03/02 14:29:57;;;;;;;;;7.75;7.75;;;;;;;;1556137;28;85753;-88
2021/03/02 14:30:43;;;;;;;;;13.33;13.33;;;;;;;;1554283;28;84937;-89
2021/03/02 14:31:29;;;;;;;;;12.50;12.50;;;;;;;;1556237;28;85814;-88
2021/03/02 14:32:14;;;;;;;;;14.33;14.33;;;;;;;;1554014;28;84468;-87
2021/03/02 14:33:01;;;;;;;;;11.33;11.33;;;;;;;;1562150;27;85102;-88
2021/03/02 14:33:46;;;;;;;;;11.00;11.00;;;;;;;;1560395;28;86403;-87
2021/03/02 14:34:35;;;;;;;;;14.00;14.00;;;;;;;;1560512;28;83423;-88
2021/03/02 14:35:20;;;;;;;;;11.25;11.00;;;;;;;;1563236;28;84888;-88
2021/03/02 14:36:06;;;;;;;;;12.00;12.00;;;;;;;;1560377;28;85195;-89
2021/03/02 14:36:52;;;;;;;;;13.00;13.00;;;;;;;;1562498;27;85959;-88
2021/03/02 14:37:37;;;;;;;;;9.00;9.00;;;;;;;;1558235;28;86219;-89
2021/03/02 14:38:24;;;;;;;;;10.33;10.33;;;;;;;;1554326;28;86069;-89
2021/03/02 14:39:09;;;;;;;;;11.00;11.00;;;;;;;;1550283;28;85352;-89
2021/03/02 14:39:54;;;;;;;;;15.00;15.00;;;;;;;;1554089;28;85304;-90
2021/03/02 14:40:40;;;;;;;;;10.67;10.67;;;;;;;;1549702;28;85730;-89
2021/03/02 14:41:29;;;;;;;;;14.00;14.00;;;;;;;;1550091;28;85196;-89
2021/03/02 14:42:18;;;;;;;;;13.25;13.25;;;;;;;;1556735;28;84785;-90
2021/03/02 14:43:06;;;;;;;;;13.25;13.25;;;;;;;;1557171;28;86111;-89
2021/03/02 14:43:52;;;;;;;;;13.00;13.00;;;;;;;;1553738;28;87310;-89
2021/03/02 14:44:38;;;;;;;;;13.50;13.50;;;;;;;;1556475;28;85282;-89
2021/03/02 14:45:27;;;;;;;;;13.75;13.75;;;;;;;;1554053;28;86463;-88
2021/03/02 14:46:14;;;;;;;;;13.50;13.00;;;;;;;;1556700;28;84179;-87
2021/03/02 14:47:03;;;;;;;;;15.00;15.00;;;;;;;;1556592;28;85953;-87
2021/03/02 14:47:53;;;;;;;;;9.00;9.00;;;;;;;;1560047;28;85001;-87
2021/03/02 14:48:40;;;;;;;;;13.25;13.25;;;;;;;;1559190;28;84692;-87
2021/03/02 14:49:27;;;;;;;;;14.75;14.75;;;;;;;;1566978;27;84681;-87
2021/03/02 14:50:17;;;;;;;;;12.00;12.00;;;;;;;;1563058;27;86127;-88
2021/03/02 14:51:02;;;;;;;;;10.75;10.75;;;;;;;;1558173;28;86210;-88
2021/03/02 14:51:50;;;;;;;;;11.67;11.67;;;;;;;;1558252;28;85883;-87
2021/03/02 14:52:38;;;;;;;;;10.25;10.25;;;;;;;;1557615;28;86456;-89
2021/03/02 14:53:25;;;;;;;;;11.75;11.75;;;;;;;;1561070;28;86015;-88
2021/03/02 14:54:14;;;;;;;;;13.00;13.00;;;;;;;;1554248;28;86474;-88
2021/03/02 14:55:02;;;;;;;;;10.75;10.75;;;;;;;;1555656;28;85841;-88
2021/03/02 14:55:49;;;;;;;;;12.25;11.25;;;;;;;;1551892;28;85258;-89
2021/03/02 14:56:37;;;;;;;;;11.00;11.00;;;;;;;;1551068;28;85263;-88
2021/03/02 14:57:24;;;;;;;;;5.75;5.75;;;;;;;;1557021;28;85067;-89
2021/03/02 14:58:10;;;;;;;;;10.50;10.50;;;;;;;;1561010;27;86525;-89
2021/03/02 14:58:56;;;;;;;;;12.00;12.00;;;;;;;;1562930;28;85856;-90
2021/03/02 14:59:44;;;;;;;;;12.33;12.33;;;;;;;;1557106;27;85985;-89
2021/03/02 15:00:29;;;;;;;;;13.00;13.00;;;;;;;;1558193;28;85835;-88
2021/03/02 15:01:15;;;;;;;;;11.67;11.67;;;;;;;;1559665;28;86455;-88
2021/03/02 15:02:05;;;;;;;;;11.25;11.25;;;;;;;;1557344;28;85906;-89
2021/03/02 15:02:52;;;;;;;;;11.25;11.25;;;;;;;;1562325;28;86484;-89
2021/03/02 15:03:40;;;;;;;;;7.25;7.25;;;;;;;;1558398;28;84116;-88
2021/03/02 15:04:25;;;;;;;;;13.25;13.25;;;;;;;;1558788;28;87748;-88
2021/03/02 15:05:11;;;;;;;;;15.00;15.00;;;;;;;;1560822;28;86966;-89
2021/03/02 15:06:00;;;;;;;;;12.00;12.00;;;;;;;;1560134;28;86766;-89
2021/03/02 15:06:47;;;;;;;;;12.25;12.25;;;;;;;;1556820;28;86844;-89
2021/03/02 15:07:32;;;;;;;;;13.00;13.00;;;;;;;;1556601;28;86872;-88
2021/03/02 15:08:18;;;;;;;;;18.00;18.00;;;;;;;;1556146;28;86482;-88
2021/03/02 15:09:03;;;;;;;;;28.33;27.67;;;;;;;;1555524;28;86539;-89
2021/03/02 15:09:49;;;;;;;;;24.50;23.25;;;;;;;;1555784;28;86675;-89
2021/03/02 15:10:34;;;;;;;;;21.67;21.67;;;;;;;;1556037;28;85644;-89
2021/03/02 15:11:20;;;;;;;;;21.67;19.33;;;;;;;;1554071;28;85463;-90
2021/03/02 15:12:06;;;;;;;;;13.50;13.50;;;;;;;;1554395;28;86776;-89
2021/03/02 15:12:52;;;;;;;;;18.00;18.00;;;;;;;;1556167;28;85812;-90
2021/03/02 15:13:38;;;;;;;;;18.25;18.25;;;;;;;;1555264;28;85238;-90
2021/03/02 15:14:27;;;;;;;;;15.00;15.00;;;;;;;;1549936;28;86267;-88
2021/03/02 15:15:13;;;;;;;;;15.50;15.50;;;;;;;;1550485;28;86876;-90
2021/03/02 15:15:58;;;;;;;;;16.33;16.33;;;;;;;;1550494;28;86351;-89
2021/03/02 15:16:44;;;;;;;;;14.67;14.67;;;;;;;;1551892;28;84227;-90
2021/03/02 15:17:29;;;;;;;;;10.33;10.33;;;;;;;;1557905;28;85700;-88
2021/03/02 15:18:15;;;;;;;;;16.67;16.00;;;;;;;;1562372;27;87023;-90
2021/03/02 15:19:04;;;;;;;;;15.67;15.67;;;;;;;;1560048;28;86905;-89
2021/03/02 15:19:50;;;;;;;;;13.50;13.50;;;;;;;;1565367;27;83092;-89
2021/03/02 15:20:35;;;;;;;;;15.00;15.00;;;;;;;;1562771;27;85256;-89
2021/03/02 15:21:21;;;;;;;;;16.00;16.00;;;;;;;;1560333;28;85073;-90
2021/03/02 15:22:06;;;;;;;;;14.67;14.67;;;;;;;;1555979;28;85102;-89
2021/03/02 15:22:52;;;;;;;;;18.00;16.33;;;;;;;;1556111;28;84423;-89
2021/03/02 15:23:40;;;;;;;;;13.67;13.67;;;;;;;;1556015;28;84000;-89
2021/03/02 15:24:26;;;;;;;;;14.50;14.50;;;;;;;;1556103;28;85234;-91
2021/03/02 15:25:12;;;;;;;;;19.67;18.67;;;;;;;;1553939;28;85179;-89
2021/03/02 15:25:58;;;;;;;;;18.25;18.25;;;;;;;;1549713;28;84717;-88
2021/03/02 15:26:45;;;;;;;;;14.33;14.33;;;;;;;;1553983;28;85774;-90
2021/03/02 15:27:31;;;;;;;;;18.25;18.25;;;;;;;;1549935;28;86437;-90
2021/03/02 15:28:17;;;;;;;;;17.67;17.67;;;;;;;;1549876;28;87024;-90
2021/03/02 15:29:02;;;;;;;;;14.75;13.50;;;;;;;;1556037;28;84839;-90
2021/03/02 15:29:48;;;;;;;;;15.33;15.00;;;;;;;;1556154;28;84799;-89
2021/03/02 15:30:35;;;;;;;;;16.33;15.00;;;;;;;;1556045;28;84502;-90
2021/03/02 15:31:20;;;;;;;;;18.25;18.25;;;;;;;;1556047;28;84919;-90
2021/03/02 15:32:09;;;;;;;;;21.67;21.67;;;;;;;;1555990;28;86438;-90
2021/03/02 15:32:55;;;;;;;;;18.75;18.75;;;;;;;;1556246;28;85088;-90
2021/03/02 15:33:40;;;;;;;;;18.00;18.00;;;;;;;;1556747;28;87029;-90
2021/03/02 15:34:25;;;;;;;;;17.33;16.00;;;;;;;;1554048;28;85002;-90
2021/03/02 15:35:12;;;;;;;;;15.33;15.33;;;;;;;;1549957;28;83723;-89
2021/03/02 15:35:59;;;;;;;;;16.50;16.25;;;;;;;;1550725;28;86294;-89
2021/03/02 15:36:46;;;;;;;;;15.25;13.75;;;;;;;;1562518;27;83471;-90
2021/03/02 15:37:32;;;;;;;;;11.00;11.00;;;;;;;;1560252;28;84134;-89
2021/03/02 15:38:20;;;;;;;;;16.50;16.25;;;;;;;;1554038;28;86300;-89
2021/03/02 15:39:06;;;;;;;;;13.25;13.25;;;;;;;;1556570;28;85724;-90
2021/03/02 15:39:52;;;;;;;;;14.75;14.25;;;;;;;;1557002;28;85003;-90
2021/03/02 15:40:37;;;;;;;;;14.67;14.67;;;;;;;;1556949;28;83695;-89
2021/03/02 15:41:23;;;;;;;;;12.33;12.33;;;;;;;;1559507;28;83940;-89
2021/03/02 15:42:08;;;;;;;;;13.00;13.00;;;;;;;;1562316;27;83699;-90
2021/03/02 15:42:54;;;;;;;;;14.67;14.67;;;;;;;;1561936;27;83630;-89
2021/03/02 15:43:42;;;;;;;;;14.33;14.33;;;;;;;;1566448;27;84834;-90
2021/03/02 15:44:28;;;;;;;;;15.00;15.00;;;;;;;;1566451;27;86252;-88
2021/03/02 15:45:14;;;;;;;;;16.25;16.25;;;;;;;;1560532;28;85181;-89
2021/03/02 15:46:03;;;;;;;;;16.33;16.33;;;;;;;;1556701;28;86252;-89
2021/03/02 15:46:49;;;;;;;;;14.50;14.50;;;;;;;;1556393;28;86757;-89
2021/03/02 15:47:34;;;;;;;;;12.67;12.67;;;;;;;;1559335;27;83661;-90